sensor_id;sensor_type;location;lat;lon;timestamp;P1;durP1;ratioP1;P2;durP2;ratioP2
7487;SDS011;3785;52.260;4.728;2023-03-21T00:02:04;7.97;;;5.40;;
7487;SDS011;3785;52.260;4.728;2023-03-21T00:05:25;9.57;;;5.50;;
7487;SDS011;3785;52.260;4.728;2023-03-21T00:08:45;11.82;;;5.85;;
7487;SDS011;3785;52.260;4.728;2023-03-21T00:12:06;10.55;;;5.88;;
7487;SDS011;3785;52.260;4.728;2023-03-21T00:15:28;9.88;;;5.32;;
7487;SDS011;3785;52.260;4.728;2023-03-21T00:18:49;7.65;;;5.28;;
7487;SDS011;3785;52.260;4.728;2023-03-21T00:22:11;8.05;;;5.10;;
7487;SDS011;3785;52.260;4.728;2023-03-21T00:25:31;7.85;;;5.30;;
7487;SDS011;3785;52.260;4.728;2023-03-21T00:28:52;8.13;;;5.07;;
7487;SDS011;3785;52.260;4.728;2023-03-21T00:32:13;8.52;;;5.50;;
7487;SDS011;3785;52.260;4.728;2023-03-21T00:35:34;9.32;;;6.22;;
7487;SDS011;3785;52.260;4.728;2023-03-21T00:38:55;10.30;;;5.88;;
7487;SDS011;3785;52.260;4.728;2023-03-21T00:42:15;8.93;;;5.85;;
7487;SDS011;3785;52.260;4.728;2023-03-21T00:45:36;11.70;;;7.25;;
7487;SDS011;3785;52.260;4.728;2023-03-21T00:49:00;12.98;;;7.28;;
7487;SDS011;3785;52.260;4.728;2023-03-21T00:52:21;12.27;;;7.43;;
7487;SDS011;3785;52.260;4.728;2023-03-21T00:55:41;12.82;;;7.70;;
7487;SDS011;3785;52.260;4.728;2023-03-21T00:59:02;12.85;;;7.90;;
7487;SDS011;3785;52.260;4.728;2023-03-21T01:02:23;14.13;;;8.38;;
7487;SDS011;3785;52.260;4.728;2023-03-21T01:05:46;11.90;;;7.63;;
7487;SDS011;3785;52.260;4.728;2023-03-21T01:09:23;15.07;;;8.15;;
7487;SDS011;3785;52.260;4.728;2023-03-21T01:12:44;15.50;;;8.68;;
7487;SDS011;3785;52.260;4.728;2023-03-21T01:16:06;14.07;;;8.48;;
7487;SDS011;3785;52.260;4.728;2023-03-21T01:19:27;12.80;;;8.38;;
7487;SDS011;3785;52.260;4.728;2023-03-21T01:22:48;13.88;;;7.57;;
7487;SDS011;3785;52.260;4.728;2023-03-21T01:26:09;12.30;;;7.72;;
7487;SDS011;3785;52.260;4.728;2023-03-21T01:29:30;14.35;;;7.50;;
7487;SDS011;3785;52.260;4.728;2023-03-21T01:32:50;12.13;;;7.25;;
7487;SDS011;3785;52.260;4.728;2023-03-21T01:36:18;11.63;;;7.45;;
7487;SDS011;3785;52.260;4.728;2023-03-21T01:39:40;10.75;;;6.95;;
7487;SDS011;3785;52.260;4.728;2023-03-21T01:43:01;11.68;;;7.28;;
7487;SDS011;3785;52.260;4.728;2023-03-21T01:50:08;9.90;;;6.50;;
7487;SDS011;3785;52.260;4.728;2023-03-21T01:53:29;10.48;;;7.18;;
7487;SDS011;3785;52.260;4.728;2023-03-21T01:56:51;11.27;;;7.03;;
7487;SDS011;3785;52.260;4.728;2023-03-21T02:00:13;11.13;;;6.97;;
7487;SDS011;3785;52.260;4.728;2023-03-21T02:03:35;12.55;;;7.30;;
7487;SDS011;3785;52.260;4.728;2023-03-21T02:07:11;13.35;;;7.90;;
7487;SDS011;3785;52.260;4.728;2023-03-21T02:10:33;12.55;;;7.93;;
7487;SDS011;3785;52.260;4.728;2023-03-21T02:13:53;11.68;;;7.78;;
7487;SDS011;3785;52.260;4.728;2023-03-21T02:32:04;11.70;;;7.10;;
7487;SDS011;3785;52.260;4.728;2023-03-21T02:43:15;10.80;;;6.65;;
7487;SDS011;3785;52.260;4.728;2023-03-21T02:46:48;12.02;;;7.32;;
7487;SDS011;3785;52.260;4.728;2023-03-21T02:50:26;15.00;;;7.47;;
7487;SDS011;3785;52.260;4.728;2023-03-21T02:54:01;11.38;;;7.18;;
7487;SDS011;3785;52.260;4.728;2023-03-21T02:57:23;15.65;;;7.75;;
7487;SDS011;3785;52.260;4.728;2023-03-21T03:00:44;11.90;;;7.13;;
7487;SDS011;3785;52.260;4.728;2023-03-21T03:04:16;11.68;;;6.65;;
7487;SDS011;3785;52.260;4.728;2023-03-21T03:11:33;13.77;;;7.20;;
7487;SDS011;3785;52.260;4.728;2023-03-21T03:18:26;13.50;;;8.45;;
7487;SDS011;3785;52.260;4.728;2023-03-21T03:21:59;10.68;;;7.97;;
7487;SDS011;3785;52.260;4.728;2023-03-21T03:25:49;15.13;;;8.95;;
7487;SDS011;3785;52.260;4.728;2023-03-21T03:29:15;13.82;;;7.80;;
7487;SDS011;3785;52.260;4.728;2023-03-21T03:32:47;12.20;;;7.82;;
7487;SDS011;3785;52.260;4.728;2023-03-21T03:36:14;15.02;;;8.00;;
7487;SDS011;3785;52.260;4.728;2023-03-21T03:39:37;13.07;;;8.25;;
7487;SDS011;3785;52.260;4.728;2023-03-21T03:43:02;10.32;;;7.13;;
7487;SDS011;3785;52.260;4.728;2023-03-21T03:46:28;12.35;;;8.20;;
7487;SDS011;3785;52.260;4.728;2023-03-21T03:50:04;13.30;;;7.63;;
7487;SDS011;3785;52.260;4.728;2023-03-21T03:57:24;12.20;;;6.82;;
7487;SDS011;3785;52.260;4.728;2023-03-21T04:00:45;11.85;;;6.07;;
7487;SDS011;3785;52.260;4.728;2023-03-21T04:04:06;12.90;;;7.97;;
7487;SDS011;3785;52.260;4.728;2023-03-21T04:07:27;11.30;;;7.13;;
7487;SDS011;3785;52.260;4.728;2023-03-21T04:10:48;12.23;;;7.47;;
7487;SDS011;3785;52.260;4.728;2023-03-21T04:14:08;11.88;;;7.03;;
7487;SDS011;3785;52.260;4.728;2023-03-21T04:17:29;8.63;;;5.80;;
7487;SDS011;3785;52.260;4.728;2023-03-21T04:20:50;11.50;;;6.03;;
7487;SDS011;3785;52.260;4.728;2023-03-21T04:24:11;9.98;;;5.65;;
7487;SDS011;3785;52.260;4.728;2023-03-21T04:27:32;10.60;;;5.93;;
7487;SDS011;3785;52.260;4.728;2023-03-21T04:30:53;10.55;;;5.90;;
7487;SDS011;3785;52.260;4.728;2023-03-21T04:34:16;7.93;;;5.07;;
7487;SDS011;3785;52.260;4.728;2023-03-21T04:37:37;10.95;;;6.63;;
7487;SDS011;3785;52.260;4.728;2023-03-21T04:40:58;9.38;;;6.30;;
7487;SDS011;3785;52.260;4.728;2023-03-21T04:44:19;11.43;;;6.55;;
7487;SDS011;3785;52.260;4.728;2023-03-21T04:47:39;13.75;;;7.00;;
7487;SDS011;3785;52.260;4.728;2023-03-21T04:51:01;12.05;;;6.75;;
7487;SDS011;3785;52.260;4.728;2023-03-21T04:54:21;13.27;;;6.85;;
7487;SDS011;3785;52.260;4.728;2023-03-21T04:57:42;11.07;;;6.07;;
7487;SDS011;3785;52.260;4.728;2023-03-21T05:01:02;9.65;;;5.97;;
7487;SDS011;3785;52.260;4.728;2023-03-21T05:04:25;15.07;;;7.05;;
7487;SDS011;3785;52.260;4.728;2023-03-21T05:07:46;11.35;;;6.85;;
7487;SDS011;3785;52.260;4.728;2023-03-21T05:11:07;13.20;;;6.47;;
7487;SDS011;3785;52.260;4.728;2023-03-21T05:14:27;14.50;;;7.55;;
7487;SDS011;3785;52.260;4.728;2023-03-21T05:17:48;12.43;;;6.53;;
7487;SDS011;3785;52.260;4.728;2023-03-21T05:21:08;12.40;;;6.35;;
7487;SDS011;3785;52.260;4.728;2023-03-21T05:24:29;11.85;;;5.82;;
7487;SDS011;3785;52.260;4.728;2023-03-21T05:27:51;11.88;;;6.75;;
7487;SDS011;3785;52.260;4.728;2023-03-21T05:31:16;11.05;;;6.35;;
7487;SDS011;3785;52.260;4.728;2023-03-21T05:34:37;13.70;;;6.55;;
7487;SDS011;3785;52.260;4.728;2023-03-21T05:37:58;10.98;;;6.40;;
7487;SDS011;3785;52.260;4.728;2023-03-21T05:41:18;13.43;;;6.10;;
7487;SDS011;3785;52.260;4.728;2023-03-21T05:44:40;13.60;;;6.28;;
7487;SDS011;3785;52.260;4.728;2023-03-21T05:48:01;10.75;;;6.40;;
7487;SDS011;3785;52.260;4.728;2023-03-21T05:51:21;12.10;;;6.57;;
7487;SDS011;3785;52.260;4.728;2023-03-21T05:54:42;11.63;;;6.38;;
7487;SDS011;3785;52.260;4.728;2023-03-21T05:58:02;10.73;;;6.20;;
7487;SDS011;3785;52.260;4.728;2023-03-21T06:01:23;12.20;;;6.82;;
7487;SDS011;3785;52.260;4.728;2023-03-21T06:04:44;12.02;;;6.75;;
7487;SDS011;3785;52.260;4.728;2023-03-21T06:08:05;14.85;;;7.07;;
7487;SDS011;3785;52.260;4.728;2023-03-21T06:11:26;16.33;;;7.85;;
7487;SDS011;3785;52.260;4.728;2023-03-21T06:14:48;16.75;;;8.13;;
7487;SDS011;3785;52.260;4.728;2023-03-21T06:18:09;14.25;;;8.30;;
7487;SDS011;3785;52.260;4.728;2023-03-21T06:21:30;17.02;;;9.02;;
7487;SDS011;3785;52.260;4.728;2023-03-21T06:24:50;13.85;;;8.35;;
7487;SDS011;3785;52.260;4.728;2023-03-21T06:28:11;14.48;;;7.97;;
7487;SDS011;3785;52.260;4.728;2023-03-21T06:31:31;14.52;;;8.20;;
7487;SDS011;3785;52.260;4.728;2023-03-21T06:34:52;15.73;;;8.75;;
7487;SDS011;3785;52.260;4.728;2023-03-21T06:38:12;16.13;;;8.68;;
7487;SDS011;3785;52.260;4.728;2023-03-21T06:41:33;15.50;;;8.32;;
7487;SDS011;3785;52.260;4.728;2023-03-21T06:44:53;15.32;;;8.60;;
7487;SDS011;3785;52.260;4.728;2023-03-21T06:48:14;20.48;;;9.32;;
7487;SDS011;3785;52.260;4.728;2023-03-21T06:51:35;16.10;;;9.00;;
7487;SDS011;3785;52.260;4.728;2023-03-21T06:54:56;16.30;;;8.40;;
7487;SDS011;3785;52.260;4.728;2023-03-21T06:58:16;13.63;;;7.40;;
7487;SDS011;3785;52.260;4.728;2023-03-21T07:01:37;18.58;;;8.35;;
7487;SDS011;3785;52.260;4.728;2023-03-21T07:04:58;15.18;;;8.23;;
7487;SDS011;3785;52.260;4.728;2023-03-21T07:08:19;12.35;;;8.05;;
7487;SDS011;3785;52.260;4.728;2023-03-21T07:11:39;11.48;;;7.90;;
7487;SDS011;3785;52.260;4.728;2023-03-21T07:15:04;15.15;;;8.30;;
7487;SDS011;3785;52.260;4.728;2023-03-21T07:18:26;15.13;;;7.38;;
7487;SDS011;3785;52.260;4.728;2023-03-21T07:21:46;11.43;;;7.28;;
7487;SDS011;3785;52.260;4.728;2023-03-21T07:25:07;14.43;;;7.55;;
7487;SDS011;3785;52.260;4.728;2023-03-21T07:28:28;12.38;;;6.90;;
7487;SDS011;3785;52.260;4.728;2023-03-21T07:31:50;14.27;;;7.07;;
7487;SDS011;3785;52.260;4.728;2023-03-21T07:35:11;14.55;;;7.28;;
7487;SDS011;3785;52.260;4.728;2023-03-21T07:38:33;15.68;;;7.80;;
7487;SDS011;3785;52.260;4.728;2023-03-21T07:41:54;12.13;;;6.93;;
7487;SDS011;3785;52.260;4.728;2023-03-21T07:45:14;12.60;;;6.70;;
7487;SDS011;3785;52.260;4.728;2023-03-21T07:48:39;15.50;;;6.47;;
7487;SDS011;3785;52.260;4.728;2023-03-21T07:52:00;12.38;;;6.50;;
7487;SDS011;3785;52.260;4.728;2023-03-21T07:55:21;12.27;;;6.80;;
7487;SDS011;3785;52.260;4.728;2023-03-21T07:58:41;11.98;;;6.10;;
7487;SDS011;3785;52.260;4.728;2023-03-21T08:02:02;15.18;;;6.63;;
7487;SDS011;3785;52.260;4.728;2023-03-21T08:05:23;11.98;;;6.65;;
7487;SDS011;3785;52.260;4.728;2023-03-21T08:08:45;11.55;;;6.13;;
7487;SDS011;3785;52.260;4.728;2023-03-21T08:12:06;10.65;;;6.25;;
7487;SDS011;3785;52.260;4.728;2023-03-21T08:15:30;12.75;;;5.97;;
7487;SDS011;3785;52.260;4.728;2023-03-21T08:18:50;11.55;;;5.78;;
7487;SDS011;3785;52.260;4.728;2023-03-21T08:22:11;7.70;;;5.55;;
7487;SDS011;3785;52.260;4.728;2023-03-21T08:25:33;12.25;;;5.38;;
7487;SDS011;3785;52.260;4.728;2023-03-21T08:28:53;13.00;;;5.63;;
7487;SDS011;3785;52.260;4.728;2023-03-21T08:32:16;13.38;;;6.18;;
7487;SDS011;3785;52.260;4.728;2023-03-21T08:35:37;9.77;;;5.18;;
7487;SDS011;3785;52.260;4.728;2023-03-21T08:38:58;9.80;;;5.45;;
7487;SDS011;3785;52.260;4.728;2023-03-21T08:42:24;10.82;;;5.35;;
7487;SDS011;3785;52.260;4.728;2023-03-21T08:45:45;12.48;;;5.32;;
7487;SDS011;3785;52.260;4.728;2023-03-21T08:49:06;11.90;;;5.72;;
7487;SDS011;3785;52.260;4.728;2023-03-21T08:52:26;11.10;;;5.50;;
7487;SDS011;3785;52.260;4.728;2023-03-21T08:55:48;11.27;;;5.80;;
7487;SDS011;3785;52.260;4.728;2023-03-21T08:59:08;11.13;;;5.68;;
7487;SDS011;3785;52.260;4.728;2023-03-21T09:02:29;13.52;;;5.45;;
7487;SDS011;3785;52.260;4.728;2023-03-21T09:05:51;9.30;;;4.80;;
7487;SDS011;3785;52.260;4.728;2023-03-21T09:09:13;10.98;;;5.38;;
7487;SDS011;3785;52.260;4.728;2023-03-21T09:12:34;12.13;;;5.25;;
7487;SDS011;3785;52.260;4.728;2023-03-21T09:15:55;11.07;;;5.22;;
7487;SDS011;3785;52.260;4.728;2023-03-21T09:19:20;11.50;;;5.40;;
7487;SDS011;3785;52.260;4.728;2023-03-21T09:22:41;8.07;;;4.28;;
7487;SDS011;3785;52.260;4.728;2023-03-21T09:26:02;7.25;;;4.50;;
7487;SDS011;3785;52.260;4.728;2023-03-21T09:29:23;9.00;;;4.47;;
7487;SDS011;3785;52.260;4.728;2023-03-21T09:32:44;8.80;;;4.72;;
7487;SDS011;3785;52.260;4.728;2023-03-21T09:36:08;9.32;;;4.25;;
7487;SDS011;3785;52.260;4.728;2023-03-21T09:39:30;9.43;;;4.88;;
7487;SDS011;3785;52.260;4.728;2023-03-21T09:42:59;10.02;;;4.75;;
7487;SDS011;3785;52.260;4.728;2023-03-21T09:50:14;8.82;;;4.93;;
7487;SDS011;3785;52.260;4.728;2023-03-21T09:53:39;10.90;;;4.95;;
7487;SDS011;3785;52.260;4.728;2023-03-21T09:57:04;8.93;;;4.90;;
7487;SDS011;3785;52.260;4.728;2023-03-21T10:00:39;11.82;;;5.60;;
7487;SDS011;3785;52.260;4.728;2023-03-21T10:04:05;11.15;;;5.60;;
7487;SDS011;3785;52.260;4.728;2023-03-21T10:07:28;11.10;;;5.55;;
7487;SDS011;3785;52.260;4.728;2023-03-21T10:10:52;10.27;;;6.35;;
7487;SDS011;3785;52.260;4.728;2023-03-21T10:14:17;9.50;;;5.65;;
7487;SDS011;3785;52.260;4.728;2023-03-21T10:18:02;8.95;;;5.75;;
7487;SDS011;3785;52.260;4.728;2023-03-21T10:21:25;10.00;;;5.65;;
7487;SDS011;3785;52.260;4.728;2023-03-21T10:24:48;9.95;;;6.20;;
7487;SDS011;3785;52.260;4.728;2023-03-21T10:28:11;9.32;;;5.90;;
7487;SDS011;3785;52.260;4.728;2023-03-21T10:31:35;11.15;;;6.22;;
7487;SDS011;3785;52.260;4.728;2023-03-21T10:34:56;11.95;;;6.90;;
7487;SDS011;3785;52.260;4.728;2023-03-21T10:38:19;14.70;;;7.03;;
7487;SDS011;3785;52.260;4.728;2023-03-21T10:41:41;12.93;;;6.63;;
7487;SDS011;3785;52.260;4.728;2023-03-21T10:45:03;9.25;;;6.28;;
7487;SDS011;3785;52.260;4.728;2023-03-21T10:48:35;10.23;;;6.20;;
7487;SDS011;3785;52.260;4.728;2023-03-21T10:51:58;14.32;;;7.10;;
7487;SDS011;3785;52.260;4.728;2023-03-21T10:58:50;11.85;;;6.45;;
7487;SDS011;3785;52.260;4.728;2023-03-21T11:02:15;11.68;;;7.00;;
7487;SDS011;3785;52.260;4.728;2023-03-21T11:05:39;13.10;;;6.93;;
7487;SDS011;3785;52.260;4.728;2023-03-21T11:09:03;11.90;;;6.55;;
7487;SDS011;3785;52.260;4.728;2023-03-21T11:12:30;13.50;;;7.57;;
7487;SDS011;3785;52.260;4.728;2023-03-21T11:15:57;12.45;;;6.45;;
7487;SDS011;3785;52.260;4.728;2023-03-21T11:19:28;11.25;;;5.88;;
7487;SDS011;3785;52.260;4.728;2023-03-21T11:22:52;9.07;;;6.38;;
7487;SDS011;3785;52.260;4.728;2023-03-21T11:26:18;10.93;;;6.18;;
7487;SDS011;3785;52.260;4.728;2023-03-21T11:29:47;13.30;;;7.20;;
7487;SDS011;3785;52.260;4.728;2023-03-21T11:33:10;13.93;;;6.60;;
7487;SDS011;3785;52.260;4.728;2023-03-21T11:36:32;9.95;;;6.85;;
7487;SDS011;3785;52.260;4.728;2023-03-21T11:39:56;12.90;;;7.43;;
7487;SDS011;3785;52.260;4.728;2023-03-21T11:43:36;12.45;;;7.38;;
7487;SDS011;3785;52.260;4.728;2023-03-21T11:46:57;12.15;;;7.65;;
7487;SDS011;3785;52.260;4.728;2023-03-21T11:53:42;13.55;;;8.15;;
7487;SDS011;3785;52.260;4.728;2023-03-21T11:57:11;11.35;;;7.68;;
7487;SDS011;3785;52.260;4.728;2023-03-21T12:01:04;14.90;;;8.77;;
7487;SDS011;3785;52.260;4.728;2023-03-21T12:08:14;13.82;;;8.63;;
7487;SDS011;3785;52.260;4.728;2023-03-21T12:12:21;16.10;;;8.48;;
7487;SDS011;3785;52.260;4.728;2023-03-21T12:26:42;11.75;;;7.82;;
7487;SDS011;3785;52.260;4.728;2023-03-21T12:34:05;11.45;;;7.30;;
7487;SDS011;3785;52.260;4.728;2023-03-21T12:37:43;10.32;;;6.32;;
7487;SDS011;3785;52.260;4.728;2023-03-21T12:41:29;6.88;;;4.50;;
7487;SDS011;3785;52.260;4.728;2023-03-21T12:44:55;8.93;;;4.10;;
7487;SDS011;3785;52.260;4.728;2023-03-21T12:48:29;6.50;;;3.78;;
7487;SDS011;3785;52.260;4.728;2023-03-21T12:51:56;6.18;;;3.85;;
7487;SDS011;3785;52.260;4.728;2023-03-21T12:55:20;7.28;;;3.60;;
7487;SDS011;3785;52.260;4.728;2023-03-21T12:58:48;7.05;;;3.90;;
7487;SDS011;3785;52.260;4.728;2023-03-21T13:02:39;9.40;;;4.03;;
7487;SDS011;3785;52.260;4.728;2023-03-21T13:06:08;7.55;;;3.80;;
7487;SDS011;3785;52.260;4.728;2023-03-21T13:09:33;7.20;;;4.07;;
7487;SDS011;3785;52.260;4.728;2023-03-21T13:16:38;8.13;;;3.80;;
7487;SDS011;3785;52.260;4.728;2023-03-21T13:24:22;7.55;;;3.83;;
7487;SDS011;3785;52.260;4.728;2023-03-21T13:27:38;7.32;;;3.80;;
7487;SDS011;3785;52.260;4.728;2023-03-21T13:38:20;5.68;;;3.17;;
7487;SDS011;3785;52.260;4.728;2023-03-21T13:41:44;4.95;;;2.92;;
7487;SDS011;3785;52.260;4.728;2023-03-21T13:45:09;6.57;;;3.75;;
7487;SDS011;3785;52.260;4.728;2023-03-21T13:55:38;6.80;;;3.28;;
7487;SDS011;3785;52.260;4.728;2023-03-21T13:59:03;6.78;;;3.72;;
7487;SDS011;3785;52.260;4.728;2023-03-21T14:02:30;7.65;;;4.15;;
7487;SDS011;3785;52.260;4.728;2023-03-21T14:05:52;7.00;;;3.60;;
7487;SDS011;3785;52.260;4.728;2023-03-21T14:09:33;6.03;;;3.97;;
7487;SDS011;3785;52.260;4.728;2023-03-21T14:12:55;6.93;;;3.90;;
7487;SDS011;3785;52.260;4.728;2023-03-21T14:16:16;4.72;;;3.50;;
7487;SDS011;3785;52.260;4.728;2023-03-21T14:19:37;8.85;;;4.20;;
7487;SDS011;3785;52.260;4.728;2023-03-21T14:22:58;7.00;;;3.63;;
7487;SDS011;3785;52.260;4.728;2023-03-21T14:26:19;7.28;;;3.45;;
7487;SDS011;3785;52.260;4.728;2023-03-21T14:29:39;5.40;;;3.65;;
7487;SDS011;3785;52.260;4.728;2023-03-21T14:33:07;4.70;;;3.17;;
7487;SDS011;3785;52.260;4.728;2023-03-21T14:36:37;5.45;;;3.70;;
7487;SDS011;3785;52.260;4.728;2023-03-21T14:39:59;5.18;;;3.47;;
7487;SDS011;3785;52.260;4.728;2023-03-21T14:43:22;5.13;;;3.72;;
7487;SDS011;3785;52.260;4.728;2023-03-21T14:46:43;5.40;;;4.10;;
7487;SDS011;3785;52.260;4.728;2023-03-21T14:50:05;5.72;;;3.13;;
7487;SDS011;3785;52.260;4.728;2023-03-21T14:53:29;6.13;;;3.70;;
7487;SDS011;3785;52.260;4.728;2023-03-21T14:56:53;4.40;;;2.75;;
7487;SDS011;3785;52.260;4.728;2023-03-21T15:00:22;5.47;;;3.38;;
7487;SDS011;3785;52.260;4.728;2023-03-21T15:03:48;4.13;;;2.90;;
7487;SDS011;3785;52.260;4.728;2023-03-21T15:07:21;6.50;;;3.20;;
7487;SDS011;3785;52.260;4.728;2023-03-21T15:14:27;6.07;;;2.90;;
7487;SDS011;3785;52.260;4.728;2023-03-21T15:17:53;4.97;;;2.97;;
7487;SDS011;3785;52.260;4.728;2023-03-21T15:21:17;3.75;;;2.75;;
7487;SDS011;3785;52.260;4.728;2023-03-21T15:24:50;4.63;;;2.28;;
7487;SDS011;3785;52.260;4.728;2023-03-21T15:28:12;5.47;;;2.42;;
7487;SDS011;3785;52.260;4.728;2023-03-21T15:31:34;4.07;;;2.15;;
7487;SDS011;3785;52.260;4.728;2023-03-21T15:35:06;3.35;;;2.28;;
7487;SDS011;3785;52.260;4.728;2023-03-21T15:38:32;4.20;;;2.13;;
7487;SDS011;3785;52.260;4.728;2023-03-21T15:42:05;2.88;;;1.73;;
7487;SDS011;3785;52.260;4.728;2023-03-21T15:45:52;3.08;;;1.80;;
7487;SDS011;3785;52.260;4.728;2023-03-21T15:52:34;2.22;;;1.33;;
7487;SDS011;3785;52.260;4.728;2023-03-21T15:55:55;1.88;;;1.38;;
7487;SDS011;3785;52.260;4.728;2023-03-21T15:59:22;4.32;;;1.48;;
7487;SDS011;3785;52.260;4.728;2023-03-21T16:02:44;2.95;;;1.42;;
7487;SDS011;3785;52.260;4.728;2023-03-21T16:09:56;2.78;;;1.48;;
7487;SDS011;3785;52.260;4.728;2023-03-21T16:13:19;2.40;;;1.48;;
7487;SDS011;3785;52.260;4.728;2023-03-21T16:16:40;4.80;;;1.48;;
7487;SDS011;3785;52.260;4.728;2023-03-21T16:20:01;2.33;;;1.55;;
7487;SDS011;3785;52.260;4.728;2023-03-21T16:23:22;3.65;;;1.60;;
7487;SDS011;3785;52.260;4.728;2023-03-21T16:26:43;4.28;;;1.70;;
7487;SDS011;3785;52.260;4.728;2023-03-21T16:30:13;3.88;;;1.58;;
7487;SDS011;3785;52.260;4.728;2023-03-21T16:33:35;3.33;;;1.70;;
7487;SDS011;3785;52.260;4.728;2023-03-21T16:36:56;2.53;;;1.60;;
7487;SDS011;3785;52.260;4.728;2023-03-21T16:40:25;3.42;;;1.60;;
7487;SDS011;3785;52.260;4.728;2023-03-21T16:43:48;3.40;;;1.70;;
7487;SDS011;3785;52.260;4.728;2023-03-21T16:47:13;2.58;;;1.70;;
7487;SDS011;3785;52.260;4.728;2023-03-21T16:50:39;2.67;;;2.08;;
7487;SDS011;3785;52.260;4.728;2023-03-21T16:54:01;4.25;;;1.80;;
7487;SDS011;3785;52.260;4.728;2023-03-21T16:57:25;2.70;;;1.63;;
7487;SDS011;3785;52.260;4.728;2023-03-21T17:00:47;2.38;;;1.80;;
7487;SDS011;3785;52.260;4.728;2023-03-21T17:04:07;3.72;;;1.85;;
7487;SDS011;3785;52.260;4.728;2023-03-21T17:07:28;2.92;;;1.70;;
7487;SDS011;3785;52.260;4.728;2023-03-21T17:10:48;3.55;;;1.42;;
7487;SDS011;3785;52.260;4.728;2023-03-21T17:14:09;5.00;;;1.10;;
7487;SDS011;3785;52.260;4.728;2023-03-21T17:17:30;2.72;;;1.00;;
7487;SDS011;3785;52.260;4.728;2023-03-21T17:20:51;1.83;;;0.80;;
7487;SDS011;3785;52.260;4.728;2023-03-21T17:24:11;3.20;;;0.90;;
7487;SDS011;3785;52.260;4.728;2023-03-21T17:27:32;2.40;;;0.82;;
7487;SDS011;3785;52.260;4.728;2023-03-21T17:30:53;3.70;;;1.00;;
7487;SDS011;3785;52.260;4.728;2023-03-21T17:34:13;2.60;;;0.73;;
7487;SDS011;3785;52.260;4.728;2023-03-21T17:37:34;1.55;;;0.60;;
7487;SDS011;3785;52.260;4.728;2023-03-21T17:40:57;2.78;;;0.73;;
7487;SDS011;3785;52.260;4.728;2023-03-21T17:44:18;1.38;;;0.52;;
7487;SDS011;3785;52.260;4.728;2023-03-21T17:47:39;2.17;;;0.65;;
7487;SDS011;3785;52.260;4.728;2023-03-21T17:51:00;1.95;;;0.60;;
7487;SDS011;3785;52.260;4.728;2023-03-21T17:54:21;2.50;;;0.68;;
7487;SDS011;3785;52.260;4.728;2023-03-21T17:57:41;2.25;;;0.40;;
7487;SDS011;3785;52.260;4.728;2023-03-21T18:01:02;0.93;;;0.40;;
7487;SDS011;3785;52.260;4.728;2023-03-21T18:04:23;1.55;;;0.50;;
7487;SDS011;3785;52.260;4.728;2023-03-21T18:07:44;3.70;;;0.50;;
7487;SDS011;3785;52.260;4.728;2023-03-21T18:11:04;5.63;;;0.65;;
7487;SDS011;3785;52.260;4.728;2023-03-21T18:14:26;2.60;;;0.63;;
7487;SDS011;3785;52.260;4.728;2023-03-21T18:17:46;1.95;;;0.45;;
7487;SDS011;3785;52.260;4.728;2023-03-21T18:21:07;2.67;;;0.70;;
7487;SDS011;3785;52.260;4.728;2023-03-21T18:24:29;2.33;;;0.77;;
7487;SDS011;3785;52.260;4.728;2023-03-21T18:27:50;2.80;;;0.60;;
7487;SDS011;3785;52.260;4.728;2023-03-21T18:31:12;2.25;;;0.57;;
7487;SDS011;3785;52.260;4.728;2023-03-21T18:34:36;3.83;;;0.82;;
7487;SDS011;3785;52.260;4.728;2023-03-21T18:37:58;3.00;;;0.90;;
7487;SDS011;3785;52.260;4.728;2023-03-21T18:41:18;2.70;;;0.90;;
7487;SDS011;3785;52.260;4.728;2023-03-21T18:44:41;4.45;;;0.70;;
7487;SDS011;3785;52.260;4.728;2023-03-21T18:48:04;4.60;;;0.93;;
7487;SDS011;3785;52.260;4.728;2023-03-21T18:51:25;3.38;;;0.68;;
7487;SDS011;3785;52.260;4.728;2023-03-21T18:54:46;5.57;;;0.98;;
7487;SDS011;3785;52.260;4.728;2023-03-21T18:58:06;4.00;;;0.80;;
7487;SDS011;3785;52.260;4.728;2023-03-21T19:01:27;3.92;;;0.60;;
7487;SDS011;3785;52.260;4.728;2023-03-21T19:04:48;3.15;;;1.20;;
7487;SDS011;3785;52.260;4.728;2023-03-21T19:08:08;3.33;;;0.80;;
7487;SDS011;3785;52.260;4.728;2023-03-21T19:11:29;4.53;;;1.13;;
7487;SDS011;3785;52.260;4.728;2023-03-21T19:14:50;4.43;;;1.08;;
7487;SDS011;3785;52.260;4.728;2023-03-21T19:18:11;3.58;;;0.90;;
7487;SDS011;3785;52.260;4.728;2023-03-21T19:21:32;2.63;;;1.15;;
7487;SDS011;3785;52.260;4.728;2023-03-21T19:24:53;3.80;;;1.05;;
7487;SDS011;3785;52.260;4.728;2023-03-21T19:28:13;3.65;;;1.17;;
7487;SDS011;3785;52.260;4.728;2023-03-21T19:31:34;2.60;;;0.95;;
7487;SDS011;3785;52.260;4.728;2023-03-21T19:34:55;3.50;;;0.80;;
7487;SDS011;3785;52.260;4.728;2023-03-21T19:38:15;4.53;;;1.23;;
7487;SDS011;3785;52.260;4.728;2023-03-21T19:41:36;3.92;;;0.77;;
7487;SDS011;3785;52.260;4.728;2023-03-21T19:44:57;5.35;;;1.17;;
7487;SDS011;3785;52.260;4.728;2023-03-21T19:48:18;2.85;;;1.02;;
7487;SDS011;3785;52.260;4.728;2023-03-21T19:51:39;4.80;;;1.00;;
7487;SDS011;3785;52.260;4.728;2023-03-21T19:54:59;4.82;;;1.13;;
7487;SDS011;3785;52.260;4.728;2023-03-21T19:58:20;4.50;;;0.90;;
7487;SDS011;3785;52.260;4.728;2023-03-21T20:01:40;3.97;;;1.20;;
7487;SDS011;3785;52.260;4.728;2023-03-21T20:05:01;8.07;;;1.25;;
7487;SDS011;3785;52.260;4.728;2023-03-21T20:08:23;4.15;;;1.10;;
7487;SDS011;3785;52.260;4.728;2023-03-21T20:11:44;3.35;;;1.00;;
7487;SDS011;3785;52.260;4.728;2023-03-21T20:15:04;2.63;;;1.00;;
7487;SDS011;3785;52.260;4.728;2023-03-21T20:18:26;4.60;;;1.10;;
7487;SDS011;3785;52.260;4.728;2023-03-21T20:21:47;4.63;;;1.33;;
7487;SDS011;3785;52.260;4.728;2023-03-21T20:25:09;3.95;;;1.67;;
7487;SDS011;3785;52.260;4.728;2023-03-21T20:28:30;3.00;;;1.10;;
7487;SDS011;3785;52.260;4.728;2023-03-21T20:31:51;1.60;;;1.25;;
7487;SDS011;3785;52.260;4.728;2023-03-21T20:35:13;4.10;;;1.25;;
7487;SDS011;3785;52.260;4.728;2023-03-21T20:38:36;3.28;;;1.30;;
7487;SDS011;3785;52.260;4.728;2023-03-21T20:41:56;5.40;;;1.35;;
7487;SDS011;3785;52.260;4.728;2023-03-21T20:45:17;2.58;;;1.00;;
7487;SDS011;3785;52.260;4.728;2023-03-21T20:48:38;3.70;;;1.15;;
7487;SDS011;3785;52.260;4.728;2023-03-21T20:51:59;3.50;;;1.38;;
7487;SDS011;3785;52.260;4.728;2023-03-21T20:55:22;6.95;;;1.75;;
7487;SDS011;3785;52.260;4.728;2023-03-21T20:58:43;4.68;;;1.75;;
7487;SDS011;3785;52.260;4.728;2023-03-21T21:02:05;4.05;;;1.70;;
7487;SDS011;3785;52.260;4.728;2023-03-21T21:05:26;3.28;;;1.65;;
7487;SDS011;3785;52.260;4.728;2023-03-21T21:08:47;3.00;;;1.70;;
7487;SDS011;3785;52.260;4.728;2023-03-21T21:12:07;3.17;;;1.88;;
7487;SDS011;3785;52.260;4.728;2023-03-21T21:15:28;3.83;;;1.60;;
7487;SDS011;3785;52.260;4.728;2023-03-21T21:18:49;2.67;;;1.60;;
7487;SDS011;3785;52.260;4.728;2023-03-21T21:22:09;2.63;;;1.27;;
7487;SDS011;3785;52.260;4.728;2023-03-21T21:25:31;2.47;;;1.20;;
7487;SDS011;3785;52.260;4.728;2023-03-21T21:28:52;4.68;;;1.40;;
7487;SDS011;3785;52.260;4.728;2023-03-21T21:32:13;4.97;;;1.25;;
7487;SDS011;3785;52.260;4.728;2023-03-21T21:35:35;4.70;;;1.38;;
7487;SDS011;3785;52.260;4.728;2023-03-21T21:38:56;4.10;;;1.70;;
7487;SDS011;3785;52.260;4.728;2023-03-21T21:42:16;4.45;;;1.35;;
7487;SDS011;3785;52.260;4.728;2023-03-21T21:45:38;4.15;;;1.23;;
7487;SDS011;3785;52.260;4.728;2023-03-21T21:48:59;4.18;;;1.50;;
7487;SDS011;3785;52.260;4.728;2023-03-21T21:52:21;3.40;;;1.50;;
7487;SDS011;3785;52.260;4.728;2023-03-21T21:55:43;2.53;;;1.15;;
7487;SDS011;3785;52.260;4.728;2023-03-21T21:59:07;4.38;;;1.10;;
7487;SDS011;3785;52.260;4.728;2023-03-21T22:02:28;3.83;;;1.10;;
7487;SDS011;3785;52.260;4.728;2023-03-21T22:05:49;2.63;;;0.85;;
7487;SDS011;3785;52.260;4.728;2023-03-21T22:09:11;3.10;;;0.77;;
7487;SDS011;3785;52.260;4.728;2023-03-21T22:12:32;6.07;;;1.55;;
7487;SDS011;3785;52.260;4.728;2023-03-21T22:15:53;3.80;;;0.95;;
7487;SDS011;3785;52.260;4.728;2023-03-21T22:19:14;4.45;;;1.10;;
7487;SDS011;3785;52.260;4.728;2023-03-21T22:22:35;4.93;;;1.20;;
7487;SDS011;3785;52.260;4.728;2023-03-21T22:25:56;2.85;;;0.80;;
7487;SDS011;3785;52.260;4.728;2023-03-21T22:29:17;5.28;;;1.45;;
7487;SDS011;3785;52.260;4.728;2023-03-21T22:32:38;4.13;;;0.82;;
7487;SDS011;3785;52.260;4.728;2023-03-21T22:35:59;2.30;;;0.90;;